Edinburgh, Verenigd Koninkrijk

10:48 AM BST op 19 september 2014 (GMT +0100)
Edinburgh Airport | Change Station
CLOSE
Current Station
Luchthaven
Location: Edinburgh Airport,
Geometrische hoogte: 135 ft
Nabije weerstations

Hoogte 135 ft 55.95 °N, 3.35 °W | Updated 28 minutes ago

Overcast
Geheel bewolkt
55 °F
Voelt als 55 °F
N
8
Wind Variabel Wind van ONO

Vandaag
Hoog -- | Laag -- °F
--% Kans op neerslag
Gisteren
Hoog -- | Laag -- °F
Precip. -- inches
6:52 AM 7:20 PM
Afnemende halvemaan, 20% visible
Druk 29.98 inches
Zicht 1.1 mijlen
Wolken Geheel bewolkt 200 ft
Dauwpunt 55 °F
Vochtigheid 100%
Neerslag 0.00 inches
Dikte sneeuw Niet beschikbaar.
UV 1 van de 12
Pollen Niet beschikbaar.
Luchtkwaliteit Niet beschikbaar.
Flu Activity Niet beschikbaar.
METAR EGPH 190920Z 06007KT 1800 BR OVC002 13/13 Q1015

More Conditions Fewer Conditions

Druk 29.98 inches
Zicht 1.1 mijlen
Wolken Geheel bewolkt 200 ft
Dauwpunt 55 °F
Vochtigheid 100%
Neerslag 0.00 inches
Dikte sneeuw Niet beschikbaar.
UV 1 van de 12
Pollen Niet beschikbaar.
Luchtkwaliteit Niet beschikbaar.
Flu Activity Niet beschikbaar.
METAR EGPH 190920Z 06007KT 1800 BR OVC002 13/13 Q1015

More Conditions Fewer Conditions

10-Day Weather Forecast

Almanac

Astronomie

Sep. 19, 2014 Opkomst Ondergang
Werkelijke tijd 6:52 AM BST 7:20 PM BST
Burgerlijke schemering 6:15 AM BST 7:57 PM BST
Nautische schemering 5:30 AM BST 8:42 PM BST
Astronomische schemering 4:42 AM BST 9:30 PM BST
Maan 1:46 AM BST 5:14 PM BST
Golflengte van het zichtbare licht 13h 42m
Daglengte
12h 28m
Tomorrow will be 4m 36s shorter.
Afnemende halvemaan, 20% of the Moon is Illuminated
Vandaag
Afnemende halvemaan
sep 24
Nieuw
oktober 1
Eerste kwartier
oktober 8
Volle maan
oktober 15
Laatste kwartier

Extremen gisteren

Country Highs Country Lows

Community

WunderPhotos

Upload Photos

1,754,583 foto’s ge-upload!

Nearby

Luchtkwaliteit

Not available.

Dikte sneeuw

Not available.

Aardbevingen

Stad Distance Mag. Time & Date
No recent earthquake activity has been reported nearby.
Minimum magnitude displayed is 2.5.

Watertemperatuur langs de kust

Plaats Temperatuur
Geen meldingen van stations

Nabije weerstations